Time;durP1;ratioP1;P1;durP2;ratioP2;P2;SDS_P1;SDS_P2;PMS_P1;PMS_P2;Temp;Humidity;BMP_temperature;BMP_pressure;BME280_temperature;BME280_humidity;BME280_pressure;Samples;Min_cycle;Max_cycle;Signal;HPM_P1;HPM_P2
2023/10/07 00:00:52;;;;;;;44.97;42.67;;;;;;;12.55;100.00;101937.63;4944565;29;20058;-77
2023/10/07 00:03:20;;;;;;;38.72;36.83;;;;;;;12.53;100.00;101929.00;4946077;29;20071;-77
2023/10/07 00:05:50;;;;;;;42.03;39.92;;;;;;;12.46;100.00;101925.44;4939078;29;20806;-77
2023/10/07 00:08:19;;;;;;;43.08;40.85;;;;;;;12.10;100.00;101926.25;4940182;29;20048;-77
2023/10/07 00:10:49;;;;;;;43.25;40.85;;;;;;;11.82;100.00;101926.06;4941833;28;20058;-77
2023/10/07 00:13:19;;;;;;;47.28;44.78;;;;;;;12.02;100.00;101923.72;4945981;29;20059;-77
2023/10/07 00:15:49;;;;;;;40.33;38.15;;;;;;;12.26;100.00;101918.06;4933677;29;20051;-79
2023/10/07 00:18:18;;;;;;;36.45;34.35;;;;;;;12.29;100.00;101925.66;4943997;29;20046;-79
2023/10/07 00:20:48;;;;;;;43.13;40.63;;;;;;;12.21;100.00;101927.63;4944549;29;20058;-77
2023/10/07 00:23:20;;;;;;;44.50;42.00;;;;;;;12.41;100.00;101927.84;4948494;29;20057;-77
2023/10/07 00:25:50;;;;;;;45.95;43.65;;;;;;;12.48;100.00;101920.75;4945587;29;20141;-77
2023/10/07 00:28:28;;;;;;;36.05;34.15;;;;;;;12.50;100.00;101924.06;4940170;29;20510;-78
2023/10/07 00:31:01;;;;;;;38.78;36.78;;;;;;;12.63;100.00;101931.34;4939528;29;20051;-77
2023/10/07 00:33:30;;;;;;;56.13;53.53;;;;;;;12.84;100.00;101932.16;4940218;29;20044;-77
2023/10/07 00:36:02;;;;;;;43.33;40.60;;;;;;;12.64;100.00;101925.81;4935586;29;20249;-77
2023/10/07 00:38:37;;;;;;;;;;;;;;;12.32;100.00;101927.97;4943009;29;20500;-78
2023/10/07 00:41:07;;;;;;;43.72;41.17;;;;;;;12.26;100.00;101928.72;4937999;29;19923;-77
2023/10/07 00:43:36;;;;;;;44.65;42.35;;;;;;;12.37;100.00;101920.25;4940121;29;20047;-78
2023/10/07 00:46:10;;;;;;;48.72;46.20;;;;;;;11.67;100.00;101918.91;4943386;29;20055;-78
2023/10/07 00:48:46;;;;;;;43.72;41.42;;;;;;;11.77;100.00;101925.78;4947307;29;20053;-78
2023/10/07 00:51:16;;;;;;;43.90;41.60;;;;;;;11.74;100.00;101916.38;4947178;29;20075;-78
2023/10/07 00:53:53;;;;;;;45.80;43.40;;;;;;;12.04;100.00;101921.66;4950412;28;20053;-77
2023/10/07 00:56:24;;;;;;;43.20;40.90;;;;;;;11.54;100.00;101920.56;4948424;28;20054;-78
2023/10/07 00:58:53;;;;;;;37.35;35.35;;;;;;;11.67;100.00;101926.06;4946713;28;20083;-78
2023/10/07 01:01:21;;;;;;;41.80;39.70;;;;;;;12.11;100.00;101935.91;4954184;28;20062;-77
2023/10/07 01:03:47;;;;;;;46.00;43.70;;;;;;;11.98;100.00;101933.91;4953204;28;20055;-77
2023/10/07 01:06:25;;;;;;;33.20;31.35;;;;;;;11.90;100.00;101926.84;4952480;28;20047;-77
2023/10/07 01:08:58;;;;;;;38.03;35.92;;;;;;;12.13;100.00;101932.06;4948061;28;20532;-78
2023/10/07 01:11:30;;;;;;;36.50;34.60;;;;;;;11.50;100.00;101928.09;4946034;29;20043;-77
2023/10/07 01:14:00;;;;;;;36.40;34.50;;;;;;;11.73;100.00;101925.34;4945627;29;20069;-77
2023/10/07 01:16:40;;;;;;;42.00;39.85;;;;;;;11.37;100.00;101930.53;4945246;29;20473;-77
2023/10/07 01:19:19;;;;;;;41.45;39.05;;;;;;;11.51;100.00;101928.94;4945070;29;20130;-76
2023/10/07 01:21:53;;;;;;;49.25;46.65;;;;;;;11.55;100.00;101932.84;4948725;28;20139;-77
2023/10/07 01:24:33;;;;;;;44.15;41.75;;;;;;;11.50;100.00;101930.75;4947085;29;20137;-77
2023/10/07 01:27:06;;;;;;;35.35;33.35;;;;;;;11.37;100.00;101928.72;4951142;29;20051;-78
2023/10/07 01:29:34;;;;;;;39.50;37.15;;;;;;;11.06;100.00;101939.47;4947896;29;20117;-78
2023/10/07 01:32:04;;;;;;;42.15;39.85;;;;;;;10.65;100.00;101931.84;4951708;29;20420;-78
2023/10/07 01:34:35;;;;;;;42.15;39.80;;;;;;;11.39;100.00;101934.69;4949862;29;20161;-78
2023/10/07 01:37:05;;;;;;;55.15;52.05;;;;;;;11.20;100.00;101930.72;4949059;29;20475;-77
2023/10/07 01:39:40;;;;;;;47.20;44.60;;;;;;;10.85;100.00;101940.13;4939555;29;20051;-77
2023/10/07 01:42:07;;;;;;;38.28;36.08;;;;;;;10.91;100.00;101936.75;4942279;29;20059;-77
2023/10/07 01:44:38;;;;;;;41.70;39.40;;;;;;;10.63;100.00;101933.81;4943836;29;20055;-77
2023/10/07 01:47:16;;;;;;;38.42;36.33;;;;;;;10.48;100.00;101933.75;4942813;29;20392;-78
2023/10/07 01:49:44;;;;;;;39.15;36.72;;;;;;;10.49;100.00;101934.56;4944424;29;20061;-78
2023/10/07 01:52:11;;;;;;;44.20;41.90;;;;;;;10.51;100.00;101928.09;4945403;29;20061;-77
2023/10/07 01:54:42;;;;;;;49.20;46.70;;;;;;;10.97;100.00;101941.38;4942634;29;20074;-78
2023/10/07 01:57:09;;;;;;;39.95;37.75;;;;;;;10.92;100.00;101929.63;4943697;29;20048;-78
2023/10/07 01:59:37;;;;;;;42.90;40.70;;;;;;;10.91;100.00;101930.63;4937192;29;20503;-78
2023/10/07 02:02:06;;;;;;;44.72;42.50;;;;;;;10.98;100.00;101931.56;4942436;29;20059;-78
2023/10/07 02:04:34;;;;;;;39.53;37.42;;;;;;;10.59;100.00;101929.88;4940742;29;20579;-84
2023/10/07 02:07:02;;;;;;;41.92;39.72;;;;;;;10.86;100.00;101936.50;4941983;29;20056;-84
2023/10/07 02:09:35;;;;;;;52.25;49.40;;;;;;;10.73;100.00;101930.94;4944081;29;20426;-84
2023/10/07 02:12:09;;;;;;;43.35;41.15;;;;;;;10.98;100.00;101931.56;4948876;29;20079;-83
2023/10/07 02:14:43;;;;;;;53.88;50.92;;;;;;;10.78;100.00;101931.22;4956041;29;20051;-83
2023/10/07 02:17:12;;;;;;;40.22;38.03;;;;;;;10.89;100.00;101930.81;4956379;29;20048;-82
2023/10/07 02:19:41;;;;;;;36.45;34.50;;;;;;;11.15;100.00;101929.59;4956172;28;20047;-83
2023/10/07 02:22:13;;;;;;;46.92;44.53;;;;;;;10.60;100.00;101923.56;4952793;29;20058;-83
2023/10/07 02:24:41;;;;;;;40.63;38.72;;;;;;;10.61;100.00;101922.53;4955386;29;20119;-82
2023/10/07 02:27:18;;;;;;;37.30;35.30;;;;;;;10.95;100.00;101930.09;4947438;29;20055;-83
2023/10/07 02:29:48;;;;;;;50.42;48.03;;;;;;;10.84;100.00;101929.69;4941004;29;20070;-83
2023/10/07 02:32:17;;;;;;;54.03;51.42;;;;;;;10.85;100.00;101926.84;4946741;28;20106;-83
2023/10/07 02:34:52;;;;;;;54.00;51.45;;;;;;;10.54;100.00;101927.75;4953868;29;20063;-84
2023/10/07 02:37:21;;;;;;;52.60;50.10;;;;;;;10.53;100.00;101923.44;4949635;28;20051;-84
2023/10/07 02:39:56;;;;;;;51.58;48.70;;;;;;;10.52;100.00;101931.56;4952247;29;20054;-84
2023/10/07 02:42:28;;;;;;;38.75;36.65;;;;;;;10.06;100.00;101928.81;4956110;29;20055;-82
2023/10/07 02:45:11;;;;;;;43.25;40.85;;;;;;;10.60;100.00;101920.91;4955724;29;20126;-82
2023/10/07 02:47:39;;;;;;;41.55;39.25;;;;;;;10.73;100.00;101923.78;4954744;29;20483;-85
2023/10/07 02:50:08;;;;;;;46.90;44.50;;;;;;;10.48;100.00;101930.28;4939141;29;20130;-84
2023/10/07 02:52:36;;;;;;;58.42;55.75;;;;;;;10.49;100.00;101919.47;4951228;29;20126;-84
2023/10/07 02:55:27;;;;;;;58.20;55.30;;;;;;;10.11;100.00;101923.81;4952612;29;20126;-84
2023/10/07 02:57:56;;;;;;;62.47;59.58;;;;;;;10.19;100.00;101917.63;4939176;29;20134;-83
2023/10/07 03:00:35;;;;;;;46.35;44.00;;;;;;;9.99;100.00;101914.59;4944075;29;20055;-83
2023/10/07 03:03:19;;;;;;;40.95;38.85;;;;;;;10.02;100.00;101917.72;4952387;29;20488;-85
2023/10/07 03:05:46;;;;;;;40.45;38.60;;;;;;;10.23;100.00;101918.94;4939359;29;20051;-84
2023/10/07 03:08:20;;;;;;;41.75;39.60;;;;;;;10.06;100.00;101910.22;4936579;29;20052;-82
2023/10/07 03:10:56;;;;;;;38.55;36.50;;;;;;;9.75;100.00;101900.41;4949095;29;20550;-82
2023/10/07 03:13:37;;;;;;;45.28;43.10;;;;;;;10.16;100.00;101904.69;4956087;29;20047;-85
2023/10/07 03:16:27;;;;;;;41.88;39.70;;;;;;;10.39;100.00;101902.13;4953852;29;20074;-84
2023/10/07 03:19:06;;;;;;;41.30;38.75;;;;;;;9.75;100.00;101903.06;4942012;29;20051;-84
2023/10/07 03:21:55;;;;;;;35.65;33.95;;;;;;;9.94;100.00;101904.47;4937449;29;20170;-84
2023/10/07 03:24:41;;;;;;;35.95;33.95;;;;;;;9.27;100.00;101904.00;4950265;29;20051;-83
2023/10/07 03:27:11;;;;;;;37.85;36.05;;;;;;;9.54;100.00;101898.31;4946481;29;20083;-83
2023/10/07 03:29:58;;;;;;;37.35;35.35;;;;;;;9.39;100.00;101892.88;4949601;28;20066;-82
2023/10/07 03:32:31;;;;;;;41.15;38.92;;;;;;;9.66;100.00;101900.59;4946969;29;20075;-82
2023/10/07 03:34:59;;;;;;;42.03;39.72;;;;;;;9.82;100.00;101892.56;4955398;29;20411;-82
2023/10/07 03:37:27;;;;;;;41.83;39.63;;;;;;;10.05;100.00;101897.97;4954593;29;20050;-82
2023/10/07 03:40:25;;;;;;;42.30;40.10;;;;;;;9.39;100.00;101905.31;4954910;29;20427;-82
2023/10/07 03:42:52;;;;;;;41.20;39.10;;;;;;;9.73;100.00;101899.75;4939402;29;20059;-84
2023/10/07 03:45:20;;;;;;;38.42;36.42;;;;;;;10.04;100.00;101899.75;4952416;28;20043;-83
2023/10/07 03:47:47;;;;;;;35.00;33.15;;;;;;;9.77;100.00;101900.22;4952949;29;20106;-84
2023/10/07 03:50:34;;;;;;;36.75;34.75;;;;;;;9.80;100.00;101899.88;4950222;29;20047;-83
2023/10/07 03:53:02;;;;;;;33.53;31.63;;;;;;;9.45;100.00;101899.34;4952862;29;20074;-82
2023/10/07 03:55:31;;;;;;;34.90;33.10;;;;;;;9.50;100.00;101894.34;4952401;28;20524;-82
2023/10/07 03:57:58;;;;;;;36.28;33.88;;;;;;;9.63;100.00;101894.63;4946957;29;20055;-83
2023/10/07 04:00:35;;;;;;;30.58;28.67;;;;;;;9.25;100.00;101898.88;4947561;29;20129;-81
2023/10/07 04:03:08;;;;;;;28.55;26.38;;;;;;;9.51;100.00;101898.66;4954205;29;20134;-82
2023/10/07 04:05:49;;;;;;;26.33;24.63;;;;;;;9.56;100.00;101887.53;4954261;29;20058;-82
2023/10/07 04:08:18;;;;;;;33.45;31.17;;;;;;;9.33;100.00;101898.03;4945221;28;20055;-82
2023/10/07 04:10:45;;;;;;;26.17;24.48;;;;;;;9.51;100.00;101898.66;4952288;28;20055;-83
2023/10/07 04:13:21;;;;;;;27.85;26.15;;;;;;;9.77;100.00;101900.22;4950536;28;20204;-83
2023/10/07 04:15:52;;;;;;;26.67;24.60;;;;;;;9.72;100.00;101898.09;4941865;28;20471;-83
2023/10/07 04:18:23;;;;;;;24.95;23.33;;;;;;;9.71;100.00;101906.22;4950830;28;20065;-83
2023/10/07 04:20:57;;;;;;;24.55;22.63;;;;;;;9.98;100.00;101903.13;4947893;29;20043;-82
2023/10/07 04:23:25;;;;;;;24.13;22.52;;;;;;;9.47;100.00;101902.66;4946199;28;20135;-83
2023/10/07 04:25:56;;;;;;;23.63;21.95;;;;;;;9.85;100.00;101902.84;4949788;28;20491;-82
2023/10/07 04:28:25;;;;;;;22.80;21.30;;;;;;;9.21;100.00;101894.91;4948228;28;20133;-77
2023/10/07 04:30:54;;;;;;;22.10;20.50;;;;;;;9.43;100.00;101901.31;4949769;29;20047;-79
2023/10/07 04:33:25;;;;;;;24.40;22.60;;;;;;;9.99;100.00;101903.97;4948302;28;20106;-78
2023/10/07 04:35:59;;;;;;;22.00;20.60;;;;;;;10.23;100.00;101901.19;4944821;28;20051;-83
2023/10/07 04:38:39;;;;;;;23.48;21.88;;;;;;;10.26;100.00;101902.66;4947007;29;20586;-84
2023/10/07 04:43:54;;;;;;;23.20;21.27;;;;;;;10.21;100.00;101887.25;4933450;28;20055;-78
2023/10/07 04:46:22;;;;;;;23.20;21.60;;;;;;;10.03;100.00;101898.13;4943389;29;20051;-84
2023/10/07 04:48:55;;;;;;;22.95;21.50;;;;;;;10.25;100.00;101888.53;4947864;29;20083;-83
2023/10/07 04:51:24;;;;;;;21.20;19.63;;;;;;;10.22;100.00;101888.88;4949049;28;20062;-83
2023/10/07 04:53:57;;;;;;;22.85;21.35;;;;;;;10.30;100.00;101893.38;4951579;28;20054;-76
2023/10/07 04:56:25;;;;;;;21.08;19.67;;;;;;;10.48;100.00;101891.25;4946464;28;20054;-77
2023/10/07 04:58:52;;;;;;;22.88;21.20;;;;;;;10.78;100.00;101891.38;4951023;28;20079;-77
2023/10/07 05:01:30;;;;;;;23.15;21.35;;;;;;;10.94;100.00;101895.72;4952148;28;20519;-78
2023/10/07 05:03:59;;;;;;;24.88;23.23;;;;;;;11.33;100.00;101889.38;4949344;28;20055;-78
2023/10/07 05:06:26;;;;;;;25.35;23.67;;;;;;;11.52;100.00;101891.47;4952318;28;20054;-78
2023/10/07 05:08:53;;;;;;;23.20;21.80;;;;;;;11.39;100.00;101889.47;4950576;28;20427;-77
2023/10/07 05:11:20;;;;;;;22.08;20.67;;;;;;;11.89;100.00;101882.59;4950403;28;20051;-77
2023/10/07 05:13:46;;;;;;;24.63;22.95;;;;;;;12.10;100.00;101892.47;4948346;28;20138;-78
2023/10/07 05:16:13;;;;;;;24.52;22.90;;;;;;;12.35;100.00;101884.13;4951340;28;20059;-78
2023/10/07 05:18:40;;;;;;;23.20;21.70;;;;;;;12.73;100.00;101889.19;4953142;28;20098;-77
2023/10/07 05:21:08;;;;;;;23.75;22.25;;;;;;;12.89;100.00;101904.09;4951711;28;20051;-78
2023/10/07 05:23:36;;;;;;;22.48;21.00;;;;;;;12.97;100.00;101890.63;4952742;28;20051;-78
2023/10/07 05:26:08;;;;;;;23.00;21.50;;;;;;;13.21;100.00;101889.38;4949891;29;20503;-78
2023/10/07 05:28:36;;;;;;;22.35;20.92;;;;;;;13.42;100.00;101888.53;4950551;29;20573;-78
2023/10/07 05:31:04;;;;;;;22.80;21.30;;;;;;;13.64;100.00;101891.91;4954539;28;20051;-78
2023/10/07 05:33:34;;;;;;;22.08;20.67;;;;;;;13.73;100.00;101896.88;4952122;28;20051;-78
2023/10/07 05:36:04;;;;;;;25.33;23.52;;;;;;;13.94;100.00;101889.81;4954117;28;20058;-78
2023/10/07 05:38:33;;;;;;;25.77;23.98;;;;;;;14.02;100.00;101889.63;4950859;28;20070;-78
2023/10/07 05:41:01;;;;;;;24.20;22.50;;;;;;;14.02;100.00;101894.97;4951008;29;20066;-78
2023/10/07 05:43:28;;;;;;;24.17;22.58;;;;;;;14.31;100.00;101907.19;4954694;28;20055;-77
2023/10/07 05:45:55;;;;;;;23.83;22.23;;;;;;;14.28;100.00;101904.09;4949777;28;20047;-77
2023/10/07 05:48:23;;;;;;;22.20;20.77;;;;;;;14.46;100.00;101911.53;4950417;29;20062;-77
2023/10/07 05:50:50;;;;;;;23.35;21.75;;;;;;;14.70;100.00;101912.84;4947594;28;20058;-77
2023/10/07 05:53:17;;;;;;;23.48;21.98;;;;;;;14.90;100.00;101916.34;4950191;28;20047;-77
2023/10/07 05:55:46;;;;;;;23.30;21.80;;;;;;;14.84;100.00;101917.19;4952668;28;20153;-78
2023/10/07 05:58:14;;;;;;;24.35;22.75;;;;;;;15.01;100.00;101923.78;4945700;29;20051;-78
2023/10/07 06:00:41;;;;;;;23.85;22.25;;;;;;;15.22;100.00;101913.88;4946889;29;20047;-78
2023/10/07 06:03:11;;;;;;;23.42;21.83;;;;;;;15.49;100.00;101911.97;4947951;29;20051;-75
2023/10/07 06:05:39;;;;;;;23.63;22.13;;;;;;;15.54;100.00;101914.84;4947948;28;20499;-78
2023/10/07 06:08:07;;;;;;;22.75;21.17;;;;;;;15.72;100.00;101909.69;4946312;28;20055;-78
2023/10/07 06:10:36;;;;;;;22.92;21.42;;;;;;;15.88;100.00;101911.06;4943908;29;20515;-77
2023/10/07 06:13:08;;;;;;;24.08;22.48;;;;;;;15.87;100.00;101913.97;4952478;28;20051;-78
2023/10/07 06:15:35;;;;;;;22.00;20.50;;;;;;;16.10;100.00;101908.09;4951854;28;20128;-84
2023/10/07 06:18:04;;;;;;;22.85;21.35;;;;;;;16.25;100.00;101916.69;4948990;28;20054;-78
2023/10/07 06:20:37;;;;;;;23.38;21.88;;;;;;;16.89;100.00;101904.94;4948406;29;20055;-84
2023/10/07 06:23:13;;;;;;;25.73;24.02;;;;;;;16.82;100.00;101909.50;4940740;28;20499;-77
2023/10/07 06:25:41;;;;;;;24.50;22.70;;;;;;;16.93;100.00;101908.81;4947809;29;20051;-77
2023/10/07 06:28:16;;;;;;;24.73;23.13;;;;;;;16.79;100.00;101903.75;4943776;28;20056;-77
2023/10/07 06:30:43;;;;;;;26.20;24.60;;;;;;;17.13;100.00;101907.81;4946615;29;20062;-78
2023/10/07 06:33:13;;;;;;;26.83;25.33;;;;;;;17.60;100.00;101900.91;4949895;28;20047;-77
2023/10/07 06:35:41;;;;;;;26.80;25.08;;;;;;;17.49;100.00;101903.53;4944801;29;20074;-76
2023/10/07 06:38:09;;;;;;;24.77;23.27;;;;;;;17.44;100.00;101896.16;4948342;28;20062;-77
2023/10/07 06:40:36;;;;;;;22.55;21.15;;;;;;;17.70;100.00;101900.41;4944799;29;20058;-77
2023/10/07 06:43:04;;;;;;;23.33;21.92;;;;;;;17.65;100.00;101902.13;4946475;29;20055;-77
2023/10/07 06:45:35;;;;;;;23.90;22.50;;;;;;;18.13;100.00;101893.31;4944272;29;20051;-77
2023/10/07 06:48:05;;;;;;;26.20;24.50;;;;;;;18.58;100.00;101898.22;4945091;29;20579;-77
2023/10/07 06:50:33;;;;;;;25.75;24.05;;;;;;;18.03;100.00;101893.81;4942810;29;20063;-76
2023/10/07 06:53:00;;;;;;;24.48;22.58;;;;;;;17.68;100.00;101883.69;4942312;29;20052;-78
2023/10/07 06:55:35;;;;;;;22.30;20.70;;;;;;;18.19;100.00;101890.53;4938651;29;20059;-77
2023/10/07 06:58:04;;;;;;;23.65;22.05;;;;;;;18.51;100.00;101887.56;4946276;29;20055;-78
2023/10/07 07:00:47;;;;;;;22.60;21.05;;;;;;;18.95;100.00;101888.94;4945122;29;20089;-77
2023/10/07 07:03:17;;;;;;;23.90;22.10;;;;;;;18.77;100.00;101894.44;4944268;29;20138;-78
2023/10/07 07:05:46;;;;;;;22.75;21.15;;;;;;;18.93;100.00;101893.75;4939837;29;20083;-77
2023/10/07 07:08:12;;;;;;;25.77;23.63;;;;;;;19.40;100.00;101890.22;4942529;29;20051;-77
2023/10/07 07:10:40;;;;;;;23.10;21.50;;;;;;;18.92;100.00;101892.09;4940996;29;20090;-77
2023/10/07 07:13:12;;;;;;;21.77;20.27;;;;;;;18.77;100.00;101894.44;4944457;29;20083;-77
2023/10/07 07:15:43;;;;;;;22.20;20.70;;;;;;;18.91;100.00;101890.47;4943436;29;20118;-77
2023/10/07 07:18:16;;;;;;;22.40;20.80;;;;;;;18.46;100.00;101890.13;4943448;28;20142;-77
2023/10/07 07:23:35;;;;;;;23.40;21.70;;;;;;;18.86;100.00;101890.34;4947308;29;19929;-77
2023/10/07 07:26:09;;;;;;;23.25;21.55;;;;;;;19.33;100.00;101884.13;4944320;28;20105;-77
2023/10/07 07:28:42;;;;;;;22.73;21.00;;;;;;;19.77;100.00;101882.69;4951862;28;20076;-78
2023/10/07 07:31:18;;;;;;;21.00;19.35;;;;;;;20.51;100.00;101884.56;4950033;28;20130;-78
2023/10/07 07:33:48;;;;;;;22.17;20.55;;;;;;;21.20;100.00;101881.63;4950400;28;20059;-78
2023/10/07 07:36:24;;;;;;;22.55;20.95;;;;;;;20.72;100.00;101875.75;4939384;28;20582;-77
2023/10/07 07:38:53;;;;;;;26.88;24.02;;;;;;;20.38;100.00;101876.78;4944041;29;20400;-77
2023/10/07 07:41:34;;;;;;;22.38;20.77;;;;;;;20.61;100.00;101878.56;4939435;28;20054;-78
2023/10/07 07:44:02;;;;;;;23.60;21.90;;;;;;;19.77;100.00;101885.38;4948382;28;20038;-77
2023/10/07 07:46:30;;;;;;;23.55;21.85;;;;;;;19.98;100.00;101873.09;4956880;28;20110;-78
2023/10/07 07:49:06;;;;;;;24.92;23.08;;;;;;;19.98;100.00;101867.72;4955423;28;20107;-77
2023/10/07 07:51:37;;;;;;;25.02;23.23;;;;;;;20.64;100.00;101861.88;4955231;28;20048;-77
2023/10/07 07:54:06;;;;;;;23.95;22.25;;;;;;;20.74;100.00;101865.56;4950327;28;20134;-78
2023/10/07 07:56:34;;;;;;;23.98;22.27;;;;;;;21.14;100.00;101864.50;4938009;29;20555;-78
2023/10/07 07:59:06;;;;;;;23.30;21.60;;;;;;;20.13;100.00;101864.50;4945960;29;20047;-78
2023/10/07 08:01:38;;;;;;;24.80;22.90;;;;;;;21.10;100.00;101867.97;4933942;29;20063;-78
2023/10/07 08:04:09;;;;;;;24.02;22.02;;;;;;;21.36;100.00;101852.94;4942219;29;20113;-78
2023/10/07 08:06:36;;;;;;;24.77;22.97;;;;;;;20.70;100.00;101861.72;4942448;29;20115;-77
2023/10/07 08:09:03;;;;;;;24.83;23.02;;;;;;;21.03;100.00;101865.47;4947203;28;20974;-78
2023/10/07 08:11:35;;;;;;;25.25;23.45;;;;;;;21.10;100.00;101857.97;4950368;28;20089;-77
2023/10/07 08:14:09;;;;;;;25.70;23.70;;;;;;;20.63;100.00;101852.94;4953155;28;20059;-77
2023/10/07 08:16:50;;;;;;;22.45;20.75;;;;;;;20.61;100.00;101865.06;4941116;29;20059;-77
2023/10/07 08:19:20;;;;;;;23.35;21.55;;;;;;;21.21;100.00;101862.47;4947536;28;20075;-77
2023/10/07 08:21:51;;;;;;;21.80;20.20;;;;;;;19.95;100.00;101865.50;4950204;28;20053;-77
2023/10/07 08:24:20;;;;;;;22.95;21.27;;;;;;;20.59;100.00;101857.22;4946891;28;20430;-77
2023/10/07 08:26:48;;;;;;;23.58;21.88;;;;;;;20.77;100.00;101864.25;4946174;29;20447;-78
2023/10/07 08:29:31;;;;;;;24.50;22.80;;;;;;;20.93;100.00;101868.00;4947258;29;20106;-78
2023/10/07 08:32:09;;;;;;;24.40;22.60;;;;;;;21.68;100.00;101847.66;4946186;28;20142;-77
2023/10/07 08:34:37;;;;;;;24.15;22.45;;;;;;;22.02;100.00;101848.28;4946157;29;20058;-78
2023/10/07 08:37:11;;;;;;;23.88;22.17;;;;;;;21.32;100.00;101852.59;4938644;29;20056;-78
2023/10/07 08:39:45;;;;;;;25.23;23.42;;;;;;;22.89;100.00;101843.63;4947606;28;20075;-78
2023/10/07 08:42:24;;;;;;;23.30;21.60;;;;;;;22.67;100.00;101845.66;4947040;28;20134;-78
2023/10/07 08:44:57;;;;;;;23.27;21.67;;;;;;;21.66;100.00;101839.78;4947974;28;20086;-76
2023/10/07 08:47:27;;;;;;;24.52;22.83;;;;;;;21.88;100.00;101837.09;4951258;28;20051;-76
2023/10/07 08:49:58;;;;;;;24.33;22.35;;;;;;;22.50;100.00;101837.66;4944139;29;20424;-78
2023/10/07 08:52:29;;;;;;;26.63;24.50;;;;;;;21.87;100.00;101832.72;4945236;29;20051;-81
2023/10/07 08:54:56;;;;;;;23.98;22.17;;;;;;;22.40;100.00;101833.81;4945469;28;20058;-77
2023/10/07 08:57:26;;;;;;;22.63;20.92;;;;;;;21.85;100.00;101820.56;4946726;28;20044;-78
2023/10/07 08:59:53;;;;;;;36.72;25.10;;;;;;;22.01;100.00;101818.81;4944095;29;20508;-78
2023/10/07 09:02:32;;;;;;;23.08;21.27;;;;;;;21.57;100.00;101814.28;4942357;29;20058;-77
2023/10/07 09:05:05;;;;;;;24.80;22.55;;;;;;;22.95;100.00;101820.94;4941771;29;20055;-78
2023/10/07 09:07:33;;;;;;;24.45;22.60;;;;;;;23.17;97.89;101820.78;4941523;29;20047;-78
2023/10/07 09:10:10;;;;;;;25.20;23.30;;;;;;;22.53;100.00;101823.63;4937499;29;20047;-78
2023/10/07 09:12:45;;;;;;;24.38;22.38;;;;;;;23.54;94.44;101817.13;4938591;29;20059;-78
2023/10/07 09:15:19;;;;;;;24.40;22.40;;;;;;;23.99;92.92;101802.91;4940651;29;20091;-76
2023/10/07 09:17:46;;;;;;;22.90;21.10;;;;;;;24.08;95.41;101799.63;4940650;29;20069;-77
2023/10/07 09:20:29;;;;;;;23.45;21.65;;;;;;;23.23;95.00;101808.88;4943199;29;20438;-76
2023/10/07 09:23:00;;;;;;;24.50;22.70;;;;;;;24.11;84.81;101794.47;4940368;29;20508;-76
2023/10/07 09:25:31;;;;;;;28.23;26.33;;;;;;;23.17;90.48;101798.28;4942605;29;20070;-76
2023/10/07 09:27:59;;;;;;;27.35;25.35;;;;;;;23.68;87.45;101795.75;4946841;29;20059;-77
2023/10/07 09:30:38;;;;;;;24.08;22.27;;;;;;;24.20;81.86;101787.44;4943588;29;20055;-78
2023/10/07 09:33:13;;;;;;;24.70;22.80;;;;;;;24.44;84.05;101789.63;4946308;29;20090;-77
2023/10/07 09:35:46;;;;;;;24.73;22.90;;;;;;;25.08;78.19;101788.94;4943042;29;20055;-77
2023/10/07 09:38:27;;;;;;;25.02;23.05;;;;;;;24.10;83.05;101797.47;4942232;29;20511;-77
2023/10/07 09:41:11;;;;;;;28.50;24.38;;;;;;;22.83;89.32;101790.50;4944978;29;20557;-78
2023/10/07 09:43:38;;;;;;;24.20;22.40;;;;;;;24.53;81.40;101776.31;4942236;29;20047;-84
2023/10/07 09:46:07;;;;;;;24.23;22.42;;;;;;;24.10;86.93;101773.88;4946318;29;20105;-84
2023/10/07 09:48:41;;;;;;;24.63;22.83;;;;;;;23.67;89.71;101778.69;4942662;29;20162;-84
2023/10/07 09:51:22;;;;;;;27.38;25.38;;;;;;;23.70;98.44;101778.19;4946279;29;20061;-84
2023/10/07 09:54:05;;;;;;;26.88;24.88;;;;;;;25.43;72.36;101767.34;4941568;29;20060;-83
2023/10/07 09:56:43;;;;;;;24.67;22.67;;;;;;;25.64;66.85;101766.09;4949910;29;20078;-76
2023/10/07 09:59:22;;;;;;;25.25;23.25;;;;;;;25.73;69.20;101752.72;4945387;29;20055;-83
2023/10/07 10:02:25;;;;;;;28.85;25.45;;;;;;;26.05;59.02;101760.38;4937846;29;20044;-76
2023/10/07 10:05:05;;;;;;;;;;;;;;;24.53;74.94;101755.41;4934052;28;20059;-77
2023/10/07 10:07:50;;;;;;;23.52;21.63;;;;;;;24.97;77.91;101752.03;4942241;29;19926;-85
2023/10/07 10:10:18;;;;;;;24.42;22.42;;;;;;;23.85;89.35;101749.44;4937900;29;20062;-77
2023/10/07 10:13:07;;;;;;;25.50;23.50;;;;;;;24.84;69.87;101744.44;4946981;29;20051;-75
2023/10/07 10:15:57;;;;;;;24.38;22.48;;;;;;;24.07;87.09;101724.75;4941073;29;20055;-78
2023/10/07 10:18:36;;;;;;;24.67;22.58;;;;;;;25.50;62.04;101727.84;4938369;29;20051;-83
2023/10/07 10:21:05;;;;;;;23.13;21.33;;;;;;;25.65;59.72;101721.47;4938401;29;20055;-85
2023/10/07 10:23:34;;;;;;;25.50;23.40;;;;;;;24.90;54.20;101713.44;4945305;29;20046;-82
2023/10/07 10:26:13;;;;;;;23.33;21.42;;;;;;;26.21;59.04;101701.19;4937303;29;20586;-77
2023/10/07 10:28:41;;;;;;;23.98;22.02;;;;;;;25.23;71.26;101705.72;4943371;29;20054;-84
2023/10/07 10:31:19;;;;;;;25.42;23.00;;;;;;;24.87;67.00;101703.13;4950142;29;20057;-84
2023/10/07 10:33:49;;;;;;;23.83;21.83;;;;;;;26.66;52.78;101689.00;4947607;29;20496;-84
2023/10/07 10:36:21;;;;;;;25.20;23.20;;;;;;;25.40;59.61;101689.03;4938900;29;20110;-86
2023/10/07 10:38:49;;;;;;;;;;;;;;;25.61;62.95;101689.72;4942401;29;20066;-84
2023/10/07 10:41:27;;;;;;;34.65;24.65;;;;;;;24.62;56.75;101685.03;4939510;29;19927;-85
2023/10/07 10:44:06;;;;;;;40.42;23.80;;;;;;;26.55;51.87;101678.53;4946990;29;20432;-84
2023/10/07 10:46:44;;;;;;;24.70;22.50;;;;;;;25.72;57.67;101670.31;4948836;28;20435;-84
2023/10/07 10:49:12;;;;;;;27.00;24.15;;;;;;;25.78;65.78;101669.16;4951532;28;20080;-83
2023/10/07 10:51:45;;;;;;;25.55;23.35;;;;;;;25.51;55.31;101657.97;4954134;28;20052;-83
2023/10/07 10:54:16;;;;;;;26.77;24.50;;;;;;;26.90;49.64;101650.00;4960078;28;20057;-84
2023/10/07 10:56:50;;;;;;;25.20;23.13;;;;;;;27.21;49.38;101650.41;4956123;28;20053;-85
2023/10/07 10:59:19;;;;;;;24.88;22.88;;;;;;;26.22;53.20;101656.50;4958689;28;20400;-84
2023/10/07 11:01:49;;;;;;;23.30;21.38;;;;;;;25.08;64.57;101649.50;4949633;28;20106;-83
2023/10/07 11:04:19;;;;;;;24.27;22.08;;;;;;;25.45;58.05;101650.94;4941385;29;20071;-84
2023/10/07 11:06:50;;;;;;;24.70;22.60;;;;;;;25.39;65.88;101633.00;4946170;29;20055;-84
2023/10/07 11:09:26;;;;;;;24.97;22.87;;;;;;;25.42;57.16;101641.44;4938798;29;20048;-84
2023/10/07 11:11:56;;;;;;;25.10;22.90;;;;;;;24.88;69.07;101626.00;4946301;29;20044;-83
2023/10/07 11:14:26;;;;;;;23.63;21.63;;;;;;;24.28;75.08;101627.84;4943207;28;20468;-85
2023/10/07 11:17:00;;;;;;;25.73;23.63;;;;;;;23.96;80.64;101624.41;4939339;29;20524;-84
2023/10/07 11:19:27;;;;;;;29.02;26.08;;;;;;;23.09;71.78;101621.63;4941302;29;20531;-84
2023/10/07 11:21:57;;;;;;;25.80;23.75;;;;;;;23.62;73.44;101617.88;4945607;29;20050;-84
2023/10/07 11:24:26;;;;;;;26.20;24.10;;;;;;;23.29;64.30;101618.13;4946093;29;20508;-83
2023/10/07 11:26:56;;;;;;;25.77;23.67;;;;;;;25.37;54.37;101608.84;4946245;29;20055;-78
2023/10/07 11:29:29;;;;;;;25.95;23.80;;;;;;;25.28;48.61;101608.63;4937418;28;20115;-77
2023/10/07 11:32:00;;;;;;;25.33;23.13;;;;;;;26.13;48.94;101601.88;4948868;28;20050;-84